sensor_id;sensor_type;location;lat;lon;timestamp;P1;durP1;ratioP1;P2;durP2;ratioP2
8704;SDS011;4389;41.932;25.904;2023-02-28T00:01:22;18.87;;;7.43;;
8704;SDS011;4389;41.932;25.904;2023-02-28T00:03:49;24.17;;;6.83;;
8704;SDS011;4389;41.932;25.904;2023-02-28T00:06:16;19.00;;;7.17;;
8704;SDS011;4389;41.932;25.904;2023-02-28T00:08:43;25.67;;;7.10;;
8704;SDS011;4389;41.932;25.904;2023-02-28T00:11:13;20.53;;;7.50;;
8704;SDS011;4389;41.932;25.904;2023-02-28T00:13:41;20.00;;;7.13;;
8704;SDS011;4389;41.932;25.904;2023-02-28T00:16:13;22.93;;;7.77;;
8704;SDS011;4389;41.932;25.904;2023-02-28T00:18:41;19.47;;;6.50;;
8704;SDS011;4389;41.932;25.904;2023-02-28T00:21:08;20.17;;;6.37;;
8704;SDS011;4389;41.932;25.904;2023-02-28T00:23:35;24.33;;;7.77;;
8704;SDS011;4389;41.932;25.904;2023-02-28T00:26:02;20.13;;;6.70;;
8704;SDS011;4389;41.932;25.904;2023-02-28T00:28:31;18.03;;;7.57;;
8704;SDS011;4389;41.932;25.904;2023-02-28T00:30:58;25.77;;;7.53;;
8704;SDS011;4389;41.932;25.904;2023-02-28T00:33:25;23.37;;;7.00;;
8704;SDS011;4389;41.932;25.904;2023-02-28T00:36:00;21.80;;;7.60;;
8704;SDS011;4389;41.932;25.904;2023-02-28T00:38:28;26.73;;;6.93;;
8704;SDS011;4389;41.932;25.904;2023-02-28T00:40:55;22.53;;;7.23;;
8704;SDS011;4389;41.932;25.904;2023-02-28T00:43:22;22.73;;;8.40;;
8704;SDS011;4389;41.932;25.904;2023-02-28T00:45:50;18.07;;;6.33;;
8704;SDS011;4389;41.932;25.904;2023-02-28T00:48:18;29.03;;;7.10;;
8704;SDS011;4389;41.932;25.904;2023-02-28T00:50:47;17.43;;;6.27;;
8704;SDS011;4389;41.932;25.904;2023-02-28T00:53:15;19.60;;;6.73;;
8704;SDS011;4389;41.932;25.904;2023-02-28T00:55:42;22.80;;;6.77;;
8704;SDS011;4389;41.932;25.904;2023-02-28T00:58:08;17.47;;;7.10;;
8704;SDS011;4389;41.932;25.904;2023-02-28T01:00:35;16.60;;;6.80;;
8704;SDS011;4389;41.932;25.904;2023-02-28T01:03:03;21.43;;;7.40;;
8704;SDS011;4389;41.932;25.904;2023-02-28T01:05:30;21.40;;;7.33;;
8704;SDS011;4389;41.932;25.904;2023-02-28T01:07:57;21.57;;;7.17;;
8704;SDS011;4389;41.932;25.904;2023-02-28T01:10:24;15.97;;;7.17;;
8704;SDS011;4389;41.932;25.904;2023-02-28T01:12:52;23.87;;;7.43;;
8704;SDS011;4389;41.932;25.904;2023-02-28T01:15:18;20.23;;;7.67;;
8704;SDS011;4389;41.932;25.904;2023-02-28T01:17:45;24.13;;;8.17;;
8704;SDS011;4389;41.932;25.904;2023-02-28T01:20:14;19.10;;;7.57;;
8704;SDS011;4389;41.932;25.904;2023-02-28T01:22:40;21.30;;;7.63;;
8704;SDS011;4389;41.932;25.904;2023-02-28T01:25:07;22.07;;;8.70;;
8704;SDS011;4389;41.932;25.904;2023-02-28T01:27:34;26.10;;;9.03;;
8704;SDS011;4389;41.932;25.904;2023-02-28T01:30:02;22.20;;;8.17;;
8704;SDS011;4389;41.932;25.904;2023-02-28T01:32:29;16.03;;;8.27;;
8704;SDS011;4389;41.932;25.904;2023-02-28T01:34:56;28.70;;;8.63;;
8704;SDS011;4389;41.932;25.904;2023-02-28T01:37:24;15.93;;;7.93;;
8704;SDS011;4389;41.932;25.904;2023-02-28T01:39:50;27.70;;;8.80;;
8704;SDS011;4389;41.932;25.904;2023-02-28T01:42:17;16.03;;;8.00;;
8704;SDS011;4389;41.932;25.904;2023-02-28T01:45:04;20.83;;;8.03;;
8704;SDS011;4389;41.932;25.904;2023-02-28T01:47:43;22.57;;;8.03;;
8704;SDS011;4389;41.932;25.904;2023-02-28T01:50:12;21.97;;;8.23;;
8704;SDS011;4389;41.932;25.904;2023-02-28T01:52:44;20.57;;;8.47;;
8704;SDS011;4389;41.932;25.904;2023-02-28T01:55:13;17.70;;;8.60;;
8704;SDS011;4389;41.932;25.904;2023-02-28T01:57:43;16.03;;;7.70;;
8704;SDS011;4389;41.932;25.904;2023-02-28T02:00:13;21.70;;;8.63;;
8704;SDS011;4389;41.932;25.904;2023-02-28T02:02:42;16.93;;;7.70;;
8704;SDS011;4389;41.932;25.904;2023-02-28T02:05:14;15.87;;;7.47;;
8704;SDS011;4389;41.932;25.904;2023-02-28T02:07:44;15.27;;;8.07;;
8704;SDS011;4389;41.932;25.904;2023-02-28T02:10:14;14.40;;;7.20;;
8704;SDS011;4389;41.932;25.904;2023-02-28T02:12:47;25.47;;;8.47;;
8704;SDS011;4389;41.932;25.904;2023-02-28T02:15:35;13.47;;;8.40;;
8704;SDS011;4389;41.932;25.904;2023-02-28T02:18:09;14.87;;;7.93;;
8704;SDS011;4389;41.932;25.904;2023-02-28T02:24:11;21.57;;;7.90;;
8704;SDS011;4389;41.932;25.904;2023-02-28T02:32:54;13.73;;;7.03;;
8704;SDS011;4389;41.932;25.904;2023-02-28T02:35:47;12.93;;;7.33;;
8704;SDS011;4389;41.932;25.904;2023-02-28T02:38:23;12.33;;;7.30;;
8704;SDS011;4389;41.932;25.904;2023-02-28T02:40:59;16.30;;;7.33;;
8704;SDS011;4389;41.932;25.904;2023-02-28T02:43:35;13.20;;;7.57;;
8704;SDS011;4389;41.932;25.904;2023-02-28T02:46:04;17.07;;;7.67;;
8704;SDS011;4389;41.932;25.904;2023-02-28T02:48:36;15.93;;;6.83;;
8704;SDS011;4389;41.932;25.904;2023-02-28T02:51:10;20.67;;;7.93;;
8704;SDS011;4389;41.932;25.904;2023-02-28T02:53:42;10.23;;;6.43;;
8704;SDS011;4389;41.932;25.904;2023-02-28T02:56:15;12.63;;;6.93;;
8704;SDS011;4389;41.932;25.904;2023-02-28T02:58:46;11.93;;;7.20;;
8704;SDS011;4389;41.932;25.904;2023-02-28T03:01:18;17.00;;;7.57;;
8704;SDS011;4389;41.932;25.904;2023-02-28T03:03:52;14.20;;;7.23;;
8704;SDS011;4389;41.932;25.904;2023-02-28T03:06:23;12.77;;;7.13;;
8704;SDS011;4389;41.932;25.904;2023-02-28T03:08:51;12.10;;;7.37;;
8704;SDS011;4389;41.932;25.904;2023-02-28T03:11:18;14.23;;;7.07;;
8704;SDS011;4389;41.932;25.904;2023-02-28T03:13:54;14.17;;;7.43;;
8704;SDS011;4389;41.932;25.904;2023-02-28T03:16:41;14.57;;;7.33;;
8704;SDS011;4389;41.932;25.904;2023-02-28T03:19:34;17.10;;;6.23;;
8704;SDS011;4389;41.932;25.904;2023-02-28T03:22:25;18.77;;;6.93;;
8704;SDS011;4389;41.932;25.904;2023-02-28T03:25:17;11.70;;;7.00;;
8704;SDS011;4389;41.932;25.904;2023-02-28T03:27:53;15.90;;;7.57;;
8704;SDS011;4389;41.932;25.904;2023-02-28T03:30:26;17.40;;;7.40;;
8704;SDS011;4389;41.932;25.904;2023-02-28T03:32:58;16.20;;;6.80;;
8704;SDS011;4389;41.932;25.904;2023-02-28T03:35:32;14.43;;;6.93;;
8704;SDS011;4389;41.932;25.904;2023-02-28T03:38:05;35.33;;;7.37;;
8704;SDS011;4389;41.932;25.904;2023-02-28T03:40:39;10.93;;;6.93;;
8704;SDS011;4389;41.932;25.904;2023-02-28T03:43:12;16.60;;;7.60;;
8704;SDS011;4389;41.932;25.904;2023-02-28T03:45:44;10.47;;;6.23;;
8704;SDS011;4389;41.932;25.904;2023-02-28T03:48:15;11.83;;;6.40;;
8704;SDS011;4389;41.932;25.904;2023-02-28T03:50:47;18.60;;;6.97;;
8704;SDS011;4389;41.932;25.904;2023-02-28T03:53:22;15.33;;;7.77;;
8704;SDS011;4389;41.932;25.904;2023-02-28T03:55:53;14.33;;;7.33;;
8704;SDS011;4389;41.932;25.904;2023-02-28T03:58:25;11.30;;;6.83;;
8704;SDS011;4389;41.932;25.904;2023-02-28T04:00:58;10.50;;;6.90;;
8704;SDS011;4389;41.932;25.904;2023-02-28T04:03:33;13.97;;;7.30;;
8704;SDS011;4389;41.932;25.904;2023-02-28T04:06:02;11.90;;;6.47;;
8704;SDS011;4389;41.932;25.904;2023-02-28T04:08:31;10.57;;;6.50;;
8704;SDS011;4389;41.932;25.904;2023-02-28T04:10:59;11.00;;;6.40;;
8704;SDS011;4389;41.932;25.904;2023-02-28T04:13:31;13.23;;;6.73;;
8704;SDS011;4389;41.932;25.904;2023-02-28T04:15:58;13.30;;;5.73;;
8704;SDS011;4389;41.932;25.904;2023-02-28T04:18:24;9.83;;;6.23;;
8704;SDS011;4389;41.932;25.904;2023-02-28T04:20:51;13.23;;;6.30;;
8704;SDS011;4389;41.932;25.904;2023-02-28T04:23:18;8.43;;;5.70;;
8704;SDS011;4389;41.932;25.904;2023-02-28T04:25:46;15.70;;;6.47;;
8704;SDS011;4389;41.932;25.904;2023-02-28T04:28:14;12.63;;;7.07;;
8704;SDS011;4389;41.932;25.904;2023-02-28T04:30:41;12.00;;;6.00;;
8704;SDS011;4389;41.932;25.904;2023-02-28T04:33:08;14.70;;;9.13;;
8704;SDS011;4389;41.932;25.904;2023-02-28T04:35:35;9.23;;;5.80;;
8704;SDS011;4389;41.932;25.904;2023-02-28T04:38:01;14.27;;;6.00;;
8704;SDS011;4389;41.932;25.904;2023-02-28T04:40:28;8.07;;;5.70;;
8704;SDS011;4389;41.932;25.904;2023-02-28T04:42:57;9.03;;;6.13;;
8704;SDS011;4389;41.932;25.904;2023-02-28T04:45:24;8.30;;;5.80;;
8704;SDS011;4389;41.932;25.904;2023-02-28T04:47:51;13.83;;;5.70;;
8704;SDS011;4389;41.932;25.904;2023-02-28T04:50:18;9.83;;;5.37;;
8704;SDS011;4389;41.932;25.904;2023-02-28T04:52:45;9.97;;;5.83;;
8704;SDS011;4389;41.932;25.904;2023-02-28T04:55:12;10.83;;;5.90;;
8704;SDS011;4389;41.932;25.904;2023-02-28T04:57:39;8.50;;;5.27;;
8704;SDS011;4389;41.932;25.904;2023-02-28T05:00:09;12.43;;;4.80;;
8704;SDS011;4389;41.932;25.904;2023-02-28T05:02:38;12.27;;;5.67;;
8704;SDS011;4389;41.932;25.904;2023-02-28T05:05:05;7.53;;;5.53;;
8704;SDS011;4389;41.932;25.904;2023-02-28T05:07:32;11.10;;;5.17;;
8704;SDS011;4389;41.932;25.904;2023-02-28T05:09:59;8.77;;;5.20;;
8704;SDS011;4389;41.932;25.904;2023-02-28T05:12:26;8.53;;;5.47;;
8704;SDS011;4389;41.932;25.904;2023-02-28T05:14:53;14.23;;;6.67;;
8704;SDS011;4389;41.932;25.904;2023-02-28T05:17:21;12.93;;;6.07;;
8704;SDS011;4389;41.932;25.904;2023-02-28T05:19:48;10.90;;;4.97;;
8704;SDS011;4389;41.932;25.904;2023-02-28T05:22:14;11.47;;;6.37;;
8704;SDS011;4389;41.932;25.904;2023-02-28T05:24:42;10.53;;;5.97;;
8704;SDS011;4389;41.932;25.904;2023-02-28T05:27:09;7.93;;;5.50;;
8704;SDS011;4389;41.932;25.904;2023-02-28T05:29:36;10.97;;;5.93;;
8704;SDS011;4389;41.932;25.904;2023-02-28T05:32:07;9.90;;;5.57;;
8704;SDS011;4389;41.932;25.904;2023-02-28T05:34:37;14.37;;;5.73;;
8704;SDS011;4389;41.932;25.904;2023-02-28T05:37:04;8.57;;;5.70;;
8704;SDS011;4389;41.932;25.904;2023-02-28T05:39:31;12.40;;;5.93;;
8704;SDS011;4389;41.932;25.904;2023-02-28T05:41:58;14.40;;;6.93;;
8704;SDS011;4389;41.932;25.904;2023-02-28T05:44:25;12.17;;;6.00;;
8704;SDS011;4389;41.932;25.904;2023-02-28T05:46:52;24.70;;;6.57;;
8704;SDS011;4389;41.932;25.904;2023-02-28T05:49:18;17.83;;;8.53;;
8704;SDS011;4389;41.932;25.904;2023-02-28T05:51:47;11.17;;;6.30;;
8704;SDS011;4389;41.932;25.904;2023-02-28T05:54:13;14.43;;;7.07;;
8704;SDS011;4389;41.932;25.904;2023-02-28T05:56:41;15.47;;;6.70;;
8704;SDS011;4389;41.932;25.904;2023-02-28T05:59:09;15.00;;;7.47;;
8704;SDS011;4389;41.932;25.904;2023-02-28T06:01:37;11.97;;;6.70;;
8704;SDS011;4389;41.932;25.904;2023-02-28T06:04:05;11.50;;;6.37;;
8704;SDS011;4389;41.932;25.904;2023-02-28T06:06:33;13.33;;;7.17;;
8704;SDS011;4389;41.932;25.904;2023-02-28T06:09:02;17.03;;;7.40;;
8704;SDS011;4389;41.932;25.904;2023-02-28T06:11:29;9.70;;;6.80;;
8704;SDS011;4389;41.932;25.904;2023-02-28T06:13:57;12.30;;;7.37;;
8704;SDS011;4389;41.932;25.904;2023-02-28T06:16:24;17.10;;;6.60;;
8704;SDS011;4389;41.932;25.904;2023-02-28T06:18:52;13.67;;;6.80;;
8704;SDS011;4389;41.932;25.904;2023-02-28T06:21:21;10.53;;;6.67;;
8704;SDS011;4389;41.932;25.904;2023-02-28T06:23:48;14.60;;;7.30;;
8704;SDS011;4389;41.932;25.904;2023-02-28T06:26:16;14.13;;;6.70;;
8704;SDS011;4389;41.932;25.904;2023-02-28T06:28:43;13.50;;;7.17;;
8704;SDS011;4389;41.932;25.904;2023-02-28T06:31:11;24.70;;;7.47;;
8704;SDS011;4389;41.932;25.904;2023-02-28T06:33:40;13.83;;;7.23;;
8704;SDS011;4389;41.932;25.904;2023-02-28T06:36:07;16.73;;;6.83;;
8704;SDS011;4389;41.932;25.904;2023-02-28T06:38:36;19.83;;;7.80;;
8704;SDS011;4389;41.932;25.904;2023-02-28T06:41:03;11.60;;;6.87;;
8704;SDS011;4389;41.932;25.904;2023-02-28T06:43:33;10.70;;;6.73;;
8704;SDS011;4389;41.932;25.904;2023-02-28T06:46:03;14.20;;;6.90;;
8704;SDS011;4389;41.932;25.904;2023-02-28T06:48:32;16.37;;;6.63;;
8704;SDS011;4389;41.932;25.904;2023-02-28T06:51:03;12.27;;;6.40;;
8704;SDS011;4389;41.932;25.904;2023-02-28T06:53:31;9.33;;;6.17;;
8704;SDS011;4389;41.932;25.904;2023-02-28T06:55:58;17.60;;;8.07;;
8704;SDS011;4389;41.932;25.904;2023-02-28T06:58:25;13.00;;;6.77;;
8704;SDS011;4389;41.932;25.904;2023-02-28T07:00:54;9.47;;;6.83;;
8704;SDS011;4389;41.932;25.904;2023-02-28T07:03:21;9.93;;;6.80;;
8704;SDS011;4389;41.932;25.904;2023-02-28T07:05:48;12.27;;;6.37;;
8704;SDS011;4389;41.932;25.904;2023-02-28T07:08:16;9.37;;;6.13;;
8704;SDS011;4389;41.932;25.904;2023-02-28T07:10:43;11.37;;;6.33;;
8704;SDS011;4389;41.932;25.904;2023-02-28T07:13:11;13.70;;;7.40;;
8704;SDS011;4389;41.932;25.904;2023-02-28T07:15:38;17.83;;;6.70;;
8704;SDS011;4389;41.932;25.904;2023-02-28T07:18:06;12.90;;;6.97;;
8704;SDS011;4389;41.932;25.904;2023-02-28T07:20:33;18.33;;;10.80;;
8704;SDS011;4389;41.932;25.904;2023-02-28T07:22:59;17.73;;;9.23;;
8704;SDS011;4389;41.932;25.904;2023-02-28T07:25:27;13.03;;;7.20;;
8704;SDS011;4389;41.932;25.904;2023-02-28T07:27:55;10.33;;;6.87;;
8704;SDS011;4389;41.932;25.904;2023-02-28T07:30:22;14.67;;;8.17;;
8704;SDS011;4389;41.932;25.904;2023-02-28T07:32:49;10.80;;;5.80;;
8704;SDS011;4389;41.932;25.904;2023-02-28T07:35:17;16.00;;;7.57;;
8704;SDS011;4389;41.932;25.904;2023-02-28T07:37:44;16.97;;;7.83;;
8704;SDS011;4389;41.932;25.904;2023-02-28T07:40:12;19.37;;;8.63;;
8704;SDS011;4389;41.932;25.904;2023-02-28T07:42:40;11.10;;;7.77;;
8704;SDS011;4389;41.932;25.904;2023-02-28T07:45:08;18.73;;;6.73;;
8704;SDS011;4389;41.932;25.904;2023-02-28T07:47:37;28.60;;;7.60;;
8704;SDS011;4389;41.932;25.904;2023-02-28T07:50:04;9.50;;;5.60;;
8704;SDS011;4389;41.932;25.904;2023-02-28T07:52:33;11.33;;;5.53;;
8704;SDS011;4389;41.932;25.904;2023-02-28T07:55:00;15.10;;;6.37;;
8704;SDS011;4389;41.932;25.904;2023-02-28T07:57:26;12.43;;;6.50;;
8704;SDS011;4389;41.932;25.904;2023-02-28T07:59:53;11.00;;;7.00;;
8704;SDS011;4389;41.932;25.904;2023-02-28T08:02:20;12.17;;;6.70;;
8704;SDS011;4389;41.932;25.904;2023-02-28T08:04:47;14.10;;;6.70;;
8704;SDS011;4389;41.932;25.904;2023-02-28T08:07:14;10.27;;;6.53;;
8704;SDS011;4389;41.932;25.904;2023-02-28T08:09:42;12.67;;;7.30;;
8704;SDS011;4389;41.932;25.904;2023-02-28T08:12:10;9.60;;;7.07;;
8704;SDS011;4389;41.932;25.904;2023-02-28T08:14:37;11.07;;;6.33;;
8704;SDS011;4389;41.932;25.904;2023-02-28T08:17:04;11.17;;;6.20;;
8704;SDS011;4389;41.932;25.904;2023-02-28T08:19:31;19.63;;;13.63;;
8704;SDS011;4389;41.932;25.904;2023-02-28T08:21:58;17.27;;;9.63;;
8704;SDS011;4389;41.932;25.904;2023-02-28T08:24:25;18.33;;;6.67;;
8704;SDS011;4389;41.932;25.904;2023-02-28T08:26:53;9.57;;;6.47;;
8704;SDS011;4389;41.932;25.904;2023-02-28T08:29:20;17.53;;;8.10;;
8704;SDS011;4389;41.932;25.904;2023-02-28T08:31:47;11.23;;;6.67;;
8704;SDS011;4389;41.932;25.904;2023-02-28T08:34:15;12.50;;;7.00;;
8704;SDS011;4389;41.932;25.904;2023-02-28T08:36:42;14.50;;;7.23;;
8704;SDS011;4389;41.932;25.904;2023-02-28T08:39:10;14.97;;;6.43;;
8704;SDS011;4389;41.932;25.904;2023-02-28T08:41:37;17.63;;;6.93;;
8704;SDS011;4389;41.932;25.904;2023-02-28T08:44:05;13.63;;;7.47;;
8704;SDS011;4389;41.932;25.904;2023-02-28T08:46:32;16.17;;;7.83;;
8704;SDS011;4389;41.932;25.904;2023-02-28T08:48:58;12.63;;;7.33;;
8704;SDS011;4389;41.932;25.904;2023-02-28T08:51:27;25.27;;;10.63;;
8704;SDS011;4389;41.932;25.904;2023-02-28T08:53:55;13.10;;;7.33;;
8704;SDS011;4389;41.932;25.904;2023-02-28T08:56:25;13.60;;;7.37;;
8704;SDS011;4389;41.932;25.904;2023-02-28T08:58:54;19.70;;;8.43;;
8704;SDS011;4389;41.932;25.904;2023-02-28T09:01:25;13.23;;;7.20;;
8704;SDS011;4389;41.932;25.904;2023-02-28T09:03:54;15.33;;;8.77;;
8704;SDS011;4389;41.932;25.904;2023-02-28T09:06:23;10.70;;;8.27;;
8704;SDS011;4389;41.932;25.904;2023-02-28T09:08:53;14.43;;;8.57;;
8704;SDS011;4389;41.932;25.904;2023-02-28T09:11:24;13.60;;;10.00;;
8704;SDS011;4389;41.932;25.904;2023-02-28T09:13:51;17.47;;;11.27;;
8704;SDS011;4389;41.932;25.904;2023-02-28T09:16:20;14.13;;;7.67;;
8704;SDS011;4389;41.932;25.904;2023-02-28T09:18:49;15.13;;;8.10;;
8704;SDS011;4389;41.932;25.904;2023-02-28T09:21:16;12.93;;;8.07;;
8704;SDS011;4389;41.932;25.904;2023-02-28T09:23:46;11.37;;;7.80;;
8704;SDS011;4389;41.932;25.904;2023-02-28T09:26:16;10.13;;;7.97;;
8704;SDS011;4389;41.932;25.904;2023-02-28T09:28:44;14.17;;;7.80;;
8704;SDS011;4389;41.932;25.904;2023-02-28T09:31:13;13.53;;;6.90;;
8704;SDS011;4389;41.932;25.904;2023-02-28T09:33:41;13.33;;;8.13;;
8704;SDS011;4389;41.932;25.904;2023-02-28T09:36:10;14.40;;;8.30;;
8704;SDS011;4389;41.932;25.904;2023-02-28T09:38:37;13.53;;;8.33;;
8704;SDS011;4389;41.932;25.904;2023-02-28T09:41:10;10.53;;;7.90;;
8704;SDS011;4389;41.932;25.904;2023-02-28T09:43:40;13.43;;;8.53;;
8704;SDS011;4389;41.932;25.904;2023-02-28T09:46:14;10.73;;;7.83;;
8704;SDS011;4389;41.932;25.904;2023-02-28T09:48:52;12.07;;;8.40;;
8704;SDS011;4389;41.932;25.904;2023-02-28T09:51:27;11.77;;;7.70;;
8704;SDS011;4389;41.932;25.904;2023-02-28T09:53:59;16.67;;;8.30;;
8704;SDS011;4389;41.932;25.904;2023-02-28T09:56:28;11.33;;;7.80;;
8704;SDS011;4389;41.932;25.904;2023-02-28T09:59:01;14.97;;;7.57;;
8704;SDS011;4389;41.932;25.904;2023-02-28T10:01:31;13.60;;;8.13;;
8704;SDS011;4389;41.932;25.904;2023-02-28T10:04:03;12.07;;;8.67;;
8704;SDS011;4389;41.932;25.904;2023-02-28T10:06:38;17.00;;;8.37;;
8704;SDS011;4389;41.932;25.904;2023-02-28T10:09:11;11.03;;;8.33;;
8704;SDS011;4389;41.932;25.904;2023-02-28T10:11:42;12.40;;;8.33;;
8704;SDS011;4389;41.932;25.904;2023-02-28T10:14:12;10.40;;;7.97;;
8704;SDS011;4389;41.932;25.904;2023-02-28T10:16:42;9.20;;;7.50;;
8704;SDS011;4389;41.932;25.904;2023-02-28T10:19:17;12.43;;;8.00;;
8704;SDS011;4389;41.932;25.904;2023-02-28T10:21:52;12.00;;;8.17;;
8704;SDS011;4389;41.932;25.904;2023-02-28T10:24:25;14.90;;;8.47;;
8704;SDS011;4389;41.932;25.904;2023-02-28T10:26:56;14.90;;;9.90;;
8704;SDS011;4389;41.932;25.904;2023-02-28T10:29:27;11.63;;;8.93;;
8704;SDS011;4389;41.932;25.904;2023-02-28T10:31:58;13.13;;;7.70;;
8704;SDS011;4389;41.932;25.904;2023-02-28T10:34:27;10.60;;;7.60;;
8704;SDS011;4389;41.932;25.904;2023-02-28T10:36:55;11.70;;;8.03;;
8704;SDS011;4389;41.932;25.904;2023-02-28T10:39:39;11.53;;;7.83;;
8704;SDS011;4389;41.932;25.904;2023-02-28T10:42:18;11.77;;;8.03;;
8704;SDS011;4389;41.932;25.904;2023-02-28T10:45:02;11.63;;;8.43;;
8704;SDS011;4389;41.932;25.904;2023-02-28T10:47:48;10.90;;;7.73;;
8704;SDS011;4389;41.932;25.904;2023-02-28T10:50:28;9.90;;;7.63;;
8704;SDS011;4389;41.932;25.904;2023-02-28T10:53:07;10.60;;;7.60;;
8704;SDS011;4389;41.932;25.904;2023-02-28T10:55:42;12.10;;;7.37;;
8704;SDS011;4389;41.932;25.904;2023-02-28T10:58:21;13.87;;;8.07;;
8704;SDS011;4389;41.932;25.904;2023-02-28T11:00:49;10.50;;;7.50;;
8704;SDS011;4389;41.932;25.904;2023-02-28T11:03:24;10.37;;;7.90;;
8704;SDS011;4389;41.932;25.904;2023-02-28T11:06:04;10.67;;;7.27;;
8704;SDS011;4389;41.932;25.904;2023-02-28T11:08:37;13.37;;;8.47;;
8704;SDS011;4389;41.932;25.904;2023-02-28T11:11:12;14.03;;;8.00;;
8704;SDS011;4389;41.932;25.904;2023-02-28T11:13:39;11.07;;;7.40;;
8704;SDS011;4389;41.932;25.904;2023-02-28T11:16:07;10.67;;;7.73;;
8704;SDS011;4389;41.932;25.904;2023-02-28T11:18:38;14.00;;;6.90;;
8704;SDS011;4389;41.932;25.904;2023-02-28T11:21:08;13.13;;;7.57;;
8704;SDS011;4389;41.932;25.904;2023-02-28T11:23:43;12.63;;;8.80;;
8704;SDS011;4389;41.932;25.904;2023-02-28T11:26:10;11.03;;;6.60;;
8704;SDS011;4389;41.932;25.904;2023-02-28T11:28:38;10.13;;;6.70;;
8704;SDS011;4389;41.932;25.904;2023-02-28T11:31:15;15.20;;;7.03;;
8704;SDS011;4389;41.932;25.904;2023-02-28T11:33:47;7.97;;;6.30;;
8704;SDS011;4389;41.932;25.904;2023-02-28T11:36:17;8.13;;;6.03;;
8704;SDS011;4389;41.932;25.904;2023-02-28T11:38:48;7.30;;;5.80;;
8704;SDS011;4389;41.932;25.904;2023-02-28T11:41:28;11.60;;;5.67;;
8704;SDS011;4389;41.932;25.904;2023-02-28T11:44:11;9.40;;;6.47;;
8704;SDS011;4389;41.932;25.904;2023-02-28T11:46:50;8.37;;;6.57;;
8704;SDS011;4389;41.932;25.904;2023-02-28T11:49:27;8.77;;;6.20;;
8704;SDS011;4389;41.932;25.904;2023-02-28T11:52:01;9.30;;;6.07;;
8704;SDS011;4389;41.932;25.904;2023-02-28T11:54:44;17.53;;;8.57;;
8704;SDS011;4389;41.932;25.904;2023-02-28T11:57:26;11.03;;;6.10;;
8704;SDS011;4389;41.932;25.904;2023-02-28T12:00:06;7.43;;;5.83;;
8704;SDS011;4389;41.932;25.904;2023-02-28T12:02:48;10.10;;;6.30;;
8704;SDS011;4389;41.932;25.904;2023-02-28T12:05:27;10.30;;;6.37;;
8704;SDS011;4389;41.932;25.904;2023-02-28T12:08:03;6.97;;;5.77;;
8704;SDS011;4389;41.932;25.904;2023-02-28T12:10:44;11.33;;;5.70;;
8704;SDS011;4389;41.932;25.904;2023-02-28T12:13:21;7.67;;;5.40;;
8704;SDS011;4389;41.932;25.904;2023-02-28T12:19:06;6.27;;;5.50;;
8704;SDS011;4389;41.932;25.904;2023-02-28T12:21:47;8.50;;;5.67;;
8704;SDS011;4389;41.932;25.904;2023-02-28T12:24:37;6.67;;;5.30;;
8704;SDS011;4389;41.932;25.904;2023-02-28T12:27:13;11.50;;;6.00;;
8704;SDS011;4389;41.932;25.904;2023-02-28T12:29:45;12.00;;;7.60;;
8704;SDS011;4389;41.932;25.904;2023-02-28T12:32:16;9.80;;;6.30;;
8704;SDS011;4389;41.932;25.904;2023-02-28T12:34:49;11.40;;;7.00;;
8704;SDS011;4389;41.932;25.904;2023-02-28T12:37:20;10.37;;;7.17;;
8704;SDS011;4389;41.932;25.904;2023-02-28T12:39:53;7.97;;;6.03;;
8704;SDS011;4389;41.932;25.904;2023-02-28T12:42:28;7.40;;;6.23;;
8704;SDS011;4389;41.932;25.904;2023-02-28T12:44:59;12.07;;;7.50;;
8704;SDS011;4389;41.932;25.904;2023-02-28T12:47:28;8.03;;;5.77;;
8704;SDS011;4389;41.932;25.904;2023-02-28T12:49:56;7.83;;;6.13;;
8704;SDS011;4389;41.932;25.904;2023-02-28T12:52:28;7.67;;;5.93;;
8704;SDS011;4389;41.932;25.904;2023-02-28T12:55:03;9.80;;;6.63;;
8704;SDS011;4389;41.932;25.904;2023-02-28T12:57:40;9.30;;;6.53;;
8704;SDS011;4389;41.932;25.904;2023-02-28T13:00:14;14.97;;;7.63;;
8704;SDS011;4389;41.932;25.904;2023-02-28T13:02:49;9.93;;;7.57;;
8704;SDS011;4389;41.932;25.904;2023-02-28T13:11:27;13.73;;;7.63;;
8704;SDS011;4389;41.932;25.904;2023-02-28T13:13:58;9.90;;;7.13;;
8704;SDS011;4389;41.932;25.904;2023-02-28T13:16:27;11.90;;;8.60;;
8704;SDS011;4389;41.932;25.904;2023-02-28T13:19:08;13.70;;;8.43;;
8704;SDS011;4389;41.932;25.904;2023-02-28T13:21:43;13.10;;;8.53;;
8704;SDS011;4389;41.932;25.904;2023-02-28T13:24:11;12.00;;;8.17;;
8704;SDS011;4389;41.932;25.904;2023-02-28T13:30:49;11.73;;;8.93;;
8704;SDS011;4389;41.932;25.904;2023-02-28T13:33:33;17.37;;;9.83;;
8704;SDS011;4389;41.932;25.904;2023-02-28T13:36:08;12.93;;;9.23;;
8704;SDS011;4389;41.932;25.904;2023-02-28T13:38:37;13.80;;;9.17;;
8704;SDS011;4389;41.932;25.904;2023-02-28T13:44:22;16.17;;;11.13;;
8704;SDS011;4389;41.932;25.904;2023-02-28T13:49:48;11.73;;;9.67;;
8704;SDS011;4389;41.932;25.904;2023-02-28T13:52:17;15.13;;;11.03;;
8704;SDS011;4389;41.932;25.904;2023-02-28T13:55:00;17.47;;;11.50;;
8704;SDS011;4389;41.932;25.904;2023-02-28T13:57:45;16.20;;;11.77;;
8704;SDS011;4389;41.932;25.904;2023-02-28T14:00:27;24.73;;;11.73;;
8704;SDS011;4389;41.932;25.904;2023-02-28T14:03:09;20.50;;;14.53;;
8704;SDS011;4389;41.932;25.904;2023-02-28T14:05:44;18.27;;;14.20;;
8704;SDS011;4389;41.932;25.904;2023-02-28T14:08:12;19.33;;;16.77;;
8704;SDS011;4389;41.932;25.904;2023-02-28T14:10:43;22.43;;;18.63;;
8704;SDS011;4389;41.932;25.904;2023-02-28T14:13:13;22.57;;;18.27;;
8704;SDS011;4389;41.932;25.904;2023-02-28T14:15:57;20.97;;;16.50;;
8704;SDS011;4389;41.932;25.904;2023-02-28T14:18:27;21.43;;;17.47;;
8704;SDS011;4389;41.932;25.904;2023-02-28T14:23:45;21.80;;;14.60;;
8704;SDS011;4389;41.932;25.904;2023-02-28T14:29:44;16.43;;;11.43;;
8704;SDS011;4389;41.932;25.904;2023-02-28T14:32:32;14.37;;;11.73;;
8704;SDS011;4389;41.932;25.904;2023-02-28T14:35:03;22.43;;;17.03;;
8704;SDS011;4389;41.932;25.904;2023-02-28T14:37:40;16.57;;;12.07;;
8704;SDS011;4389;41.932;25.904;2023-02-28T14:40:12;19.57;;;11.90;;
8704;SDS011;4389;41.932;25.904;2023-02-28T14:42:45;16.03;;;11.43;;
8704;SDS011;4389;41.932;25.904;2023-02-28T14:45:17;14.87;;;10.50;;
8704;SDS011;4389;41.932;25.904;2023-02-28T14:47:47;15.57;;;12.73;;
8704;SDS011;4389;41.932;25.904;2023-02-28T14:50:18;15.30;;;11.27;;
8704;SDS011;4389;41.932;25.904;2023-02-28T14:52:46;17.37;;;10.83;;
8704;SDS011;4389;41.932;25.904;2023-02-28T14:55:16;17.53;;;13.37;;
8704;SDS011;4389;41.932;25.904;2023-02-28T14:57:51;15.13;;;12.03;;
8704;SDS011;4389;41.932;25.904;2023-02-28T15:00:22;19.77;;;12.13;;
8704;SDS011;4389;41.932;25.904;2023-02-28T15:02:52;15.73;;;13.10;;
8704;SDS011;4389;41.932;25.904;2023-02-28T15:05:25;14.93;;;11.43;;
8704;SDS011;4389;41.932;25.904;2023-02-28T15:08:04;15.23;;;10.63;;
8704;SDS011;4389;41.932;25.904;2023-02-28T15:10:37;13.50;;;10.07;;
8704;SDS011;4389;41.932;25.904;2023-02-28T15:13:06;13.00;;;10.77;;
8704;SDS011;4389;41.932;25.904;2023-02-28T15:15:39;11.93;;;9.67;;
8704;SDS011;4389;41.932;25.904;2023-02-28T15:18:13;12.03;;;8.43;;
8704;SDS011;4389;41.932;25.904;2023-02-28T15:20:48;12.07;;;8.67;;
8704;SDS011;4389;41.932;25.904;2023-02-28T15:23:16;14.33;;;9.80;;
8704;SDS011;4389;41.932;25.904;2023-02-28T15:25:45;14.53;;;10.93;;
8704;SDS011;4389;41.932;25.904;2023-02-28T15:28:14;16.10;;;10.30;;
8704;SDS011;4389;41.932;25.904;2023-02-28T15:30:51;12.53;;;9.87;;
8704;SDS011;4389;41.932;25.904;2023-02-28T15:33:25;11.47;;;8.67;;
8704;SDS011;4389;41.932;25.904;2023-02-28T15:36:03;14.50;;;8.53;;
8704;SDS011;4389;41.932;25.904;2023-02-28T15:38:37;12.53;;;8.57;;
8704;SDS011;4389;41.932;25.904;2023-02-28T15:41:04;9.60;;;7.93;;
8704;SDS011;4389;41.932;25.904;2023-02-28T15:43:34;7.87;;;6.60;;
8704;SDS011;4389;41.932;25.904;2023-02-28T15:46:05;8.57;;;7.07;;